createdAt,value
2023-10-20T00:05:07.504Z,26.3
2023-10-20T00:10:58.906Z,26.3
2023-10-20T00:16:50.183Z,26.3
2023-10-20T00:22:42.331Z,26.3
2023-10-20T00:28:34.070Z,26.3
2023-10-20T00:34:26.041Z,26.3
2023-10-20T00:40:17.879Z,26.3
2023-10-20T00:46:10.396Z,26.3
2023-10-20T00:52:02.875Z,26.3
2023-10-20T00:57:55.138Z,26.3
2023-10-20T01:03:48.056Z,26.3
2023-10-20T01:09:40.219Z,26.3
2023-10-20T01:15:32.280Z,26.3
2023-10-20T01:21:24.610Z,26.3
2023-10-20T01:27:16.382Z,26.3
2023-10-20T01:33:07.861Z,26.3
2023-10-20T01:38:59.729Z,26.3
2023-10-20T01:44:51.773Z,26.3
2023-10-20T01:50:44.784Z,26.3
2023-10-20T01:56:37.015Z,26.3
2023-10-20T02:02:28.610Z,26.3
2023-10-20T02:08:21.406Z,26.3
2023-10-20T02:13:58.339Z,26.1
2023-10-20T02:19:51.211Z,25.9
2023-10-20T02:25:43.237Z,25.9
2023-10-20T02:31:35.579Z,25.8
2023-10-20T02:37:27.786Z,25.8
2023-10-20T02:43:19.046Z,25.8
2023-10-20T02:49:11.345Z,25.8
2023-10-20T02:55:04.037Z,25.8
2023-10-20T03:00:55.646Z,25.8
2023-10-20T03:06:49.610Z,25.8
2023-10-20T03:12:41.016Z,25.7
2023-10-20T03:18:33.051Z,25.7
2023-10-20T03:24:28.195Z,25.7
2023-10-20T03:30:19.784Z,25.7
2023-10-20T03:36:12.585Z,25.7
2023-10-20T03:42:04.584Z,25.7
2023-10-20T03:47:56.924Z,25.7
2023-10-20T03:53:49.124Z,25.7
2023-10-20T03:59:41.139Z,25.7
2023-10-20T04:05:18.560Z,25.7
2023-10-20T04:11:10.343Z,25.7
2023-10-20T04:16:47.934Z,25.7
2023-10-20T04:22:26.552Z,25.7
2023-10-20T04:28:02.741Z,25.7
2023-10-20T04:33:39.702Z,25.7
2023-10-20T04:39:17.047Z,25.6
2023-10-20T04:44:54.011Z,25.4
2023-10-20T04:50:32.603Z,25.4
2023-10-20T04:55:37.893Z,25.3
2023-10-20T05:01:30.286Z,25
2023-10-20T05:07:10.279Z,24.8
2023-10-20T05:12:45.880Z,24.7
2023-10-20T05:18:22.782Z,24.6
2023-10-20T05:23:58.854Z,24.6
2023-10-20T05:29:34.200Z,24.6
2023-10-20T05:35:13.746Z,24.6
2023-10-20T05:40:34.805Z,24.6
2023-10-20T05:45:55.887Z,24.6
2023-10-20T05:51:17.458Z,24.6
2023-10-20T05:56:38.707Z,24.5
2023-10-20T06:02:15.439Z,24.6
2023-10-20T06:07:52.676Z,24.5
2023-10-20T06:13:14.610Z,24.5
2023-10-20T06:18:49.243Z,27.4
2023-10-20T06:23:55.178Z,34.3
2023-10-20T06:29:31.397Z,31.4
2023-10-20T06:34:53.413Z,30.3
2023-10-20T06:40:30.456Z,39.7
2023-10-20T06:46:07.726Z,40.7
2023-10-20T06:52:00.336Z,41
2023-10-20T06:58:48.074Z,41.5
2023-10-20T07:04:40.469Z,41.3
2023-10-20T07:10:32.002Z,41.1
2023-10-20T07:16:29.444Z,41
2023-10-20T07:22:23.290Z,40.8
2023-10-20T07:28:16.090Z,40.6
2023-10-20T07:34:14.783Z,40.4
2023-10-20T07:40:08.062Z,40.3
2023-10-20T07:46:00.348Z,40.3
2023-10-20T07:51:54.864Z,41.3
2023-10-20T07:57:32.992Z,42
2023-10-20T08:03:28.354Z,42.8
2023-10-20T08:09:26.676Z,42.5
2023-10-20T08:15:21.108Z,42.9
2023-10-20T08:21:14.488Z,43.3
2023-10-20T08:27:07.082Z,43.9
2023-10-20T08:32:59.914Z,44.6
2023-10-20T08:38:52.916Z,45.6
2023-10-20T08:44:52.385Z,46.6
2023-10-20T08:50:17.293Z,47.5
2023-10-20T08:56:14.878Z,48.2
2023-10-20T09:02:25.069Z,49.3
2023-10-20T09:08:18.024Z,50.3
2023-10-20T09:14:13.688Z,51.3
2023-10-20T09:20:09.301Z,52.2
2023-10-20T09:25:48.749Z,53.1
2023-10-20T09:31:32.741Z,53.9
2023-10-20T09:37:27.703Z,54.8
2023-10-20T09:43:11.227Z,55.3
2023-10-20T09:49:11.016Z,55.3
2023-10-20T09:55:06.970Z,55.5
2023-10-20T10:01:03.076Z,55.4
2023-10-20T10:06:57.656Z,55.7
2023-10-20T10:12:50.463Z,55.5
2023-10-20T10:18:43.030Z,54.9
2023-10-20T10:24:49.071Z,54.4
2023-10-20T10:30:44.492Z,54.8
2023-10-20T10:36:59.141Z,55.9
2023-10-20T10:42:53.293Z,56.5
2023-10-20T10:48:50.686Z,56.9
2023-10-20T10:54:48.565Z,57.3
2023-10-20T11:00:45.039Z,57.6
2023-10-20T11:06:42.940Z,57.9
2023-10-20T11:12:35.584Z,58
2023-10-20T11:18:31.974Z,58.3
2023-10-20T11:24:27.978Z,58.5
2023-10-20T11:30:32.491Z,58.7
2023-10-20T11:36:25.019Z,59
2023-10-20T11:42:17.316Z,58.6
2023-10-20T11:48:08.483Z,58.8
2023-10-20T11:54:04.770Z,58.9
2023-10-20T11:59:58.947Z,58.9
2023-10-20T12:05:51.989Z,59.1
2023-10-20T12:11:28.468Z,59.2
2023-10-20T12:17:20.330Z,59.2
2023-10-20T12:23:13.241Z,59.1
2023-10-20T12:28:53.023Z,59.1
2023-10-20T12:34:47.124Z,59.1
2023-10-20T12:40:38.529Z,58.9
2023-10-20T12:46:16.317Z,58.9
2023-10-20T12:51:54.126Z,58.8
2023-10-20T12:57:30.335Z,58.5
2023-10-20T13:03:08.454Z,58.3
2023-10-20T13:08:57.726Z,58
2023-10-20T13:14:52.035Z,53.8
2023-10-20T13:20:45.069Z,46.9
2023-10-20T13:26:21.486Z,44.5
2023-10-20T13:32:17.978Z,44.8
2023-10-20T13:44:20.329Z,45.7
2023-10-20T13:50:12.902Z,45.9
2023-10-20T13:56:05.729Z,46.1
2023-10-20T14:01:57.912Z,45.9
2023-10-20T14:07:37.521Z,45.7
2023-10-20T14:13:14.226Z,45.6
2023-10-20T14:18:50.831Z,45.1
2023-10-20T14:24:26.526Z,44.4
2023-10-20T14:30:02.439Z,42.9
2023-10-20T14:35:39.131Z,42.7
2023-10-20T14:41:18.230Z,42.1
2023-10-20T14:46:54.676Z,41.8
2023-10-20T14:52:31.468Z,41.6
2023-10-20T14:58:22.870Z,41.3
2023-10-20T15:04:13.960Z,40.9
2023-10-20T15:10:11.228Z,40.5
2023-10-20T15:16:04.359Z,40.1
2023-10-20T15:21:59.990Z,38.8
2023-10-20T15:28:04.257Z,38.4
2023-10-20T15:33:57.296Z,38
2023-10-20T15:40:18.145Z,37.6
2023-10-20T15:46:10.166Z,37.3
2023-10-20T15:52:02.731Z,37
2023-10-20T15:57:54.210Z,36.6
2023-10-20T16:03:50.250Z,36.3
2023-10-20T16:09:27.242Z,35.9
2023-10-20T16:15:18.150Z,35.6
2023-10-20T16:21:10.386Z,35.3
2023-10-20T16:27:01.399Z,34.6
2023-10-20T16:32:56.139Z,34.1
2023-10-20T16:38:48.090Z,33.8
2023-10-20T16:44:23.625Z,33.6
2023-10-20T16:50:00.169Z,33.3
2023-10-20T16:55:51.798Z,33.1
2023-10-20T17:01:43.107Z,32.8
2023-10-20T17:07:20.571Z,32.6
2023-10-20T17:13:15.039Z,32.4
2023-10-20T17:19:09.294Z,32.1
2023-10-20T17:25:00.698Z,31.9
2023-10-20T17:30:52.605Z,31.7
2023-10-20T17:36:45.806Z,31.5
2023-10-20T17:42:40.914Z,31.1
2023-10-20T17:48:33.836Z,30.9
2023-10-20T17:54:25.850Z,30.7
2023-10-20T18:00:20.596Z,30.5
2023-10-20T18:06:18.503Z,30.3
2023-10-20T18:12:14.321Z,30.1
2023-10-20T18:18:08.999Z,30
2023-10-20T18:24:01.985Z,29.6
2023-10-20T18:29:57.947Z,29.4
2023-10-20T18:35:51.592Z,29
2023-10-20T18:41:28.843Z,28.8
2023-10-20T18:47:23.899Z,28.7
2023-10-20T18:53:17.606Z,28.5
2023-10-20T18:59:10.530Z,28.2
2023-10-20T19:05:05.402Z,28
2023-10-20T19:10:46.793Z,27.9
2023-10-20T19:16:39.211Z,27.8
2023-10-20T19:22:34.657Z,27.6
2023-10-20T19:28:30.712Z,27.4
2023-10-20T19:34:24.185Z,27.2
2023-10-20T19:40:17.386Z,27
2023-10-20T19:46:10.997Z,26.8
2023-10-20T19:52:04.427Z,26.6
2023-10-20T19:57:56.491Z,26.3
2023-10-20T20:03:51.098Z,25.8
2023-10-20T20:09:44.925Z,25.4
2023-10-20T20:15:40.772Z,25.1
2023-10-20T20:21:17.873Z,24.9
2023-10-20T20:26:54.398Z,24.8
2023-10-20T20:32:46.976Z,24.6
2023-10-20T20:38:38.596Z,24.4
2023-10-20T20:44:31.442Z,24.3
2023-10-20T20:50:13.186Z,24.2
2023-10-20T20:56:09.409Z,24.1
2023-10-20T21:02:01.839Z,24
2023-10-20T21:07:42.464Z,23.9
2023-10-20T21:13:18.280Z,23.9
2023-10-20T21:19:10.807Z,23.8
2023-10-20T21:24:47.450Z,23.8
2023-10-20T21:30:23.431Z,23.7
2023-10-20T21:36:01.546Z,23.7
2023-10-20T21:41:53.145Z,23.6
2023-10-20T21:47:29.363Z,23.6
2023-10-20T21:53:05.352Z,23.5
2023-10-20T21:58:41.666Z,23.5
2023-10-20T22:04:32.227Z,23.5
2023-10-20T22:10:35.057Z,23.4
2023-10-20T22:16:10.710Z,23.4
2023-10-20T22:22:03.170Z,23.4
2023-10-20T22:27:54.783Z,23.4
2023-10-20T22:33:49.901Z,23.4
2023-10-20T22:39:26.554Z,23.3
2023-10-20T22:45:19.252Z,23.3
2023-10-20T22:50:58.440Z,23.3
2023-10-20T22:56:50.654Z,23.3
2023-10-20T23:02:12.060Z,23.3
2023-10-20T23:07:49.644Z,23.3
2023-10-20T23:13:26.446Z,23.3
2023-10-20T23:19:18.989Z,23.2
2023-10-20T23:24:23.755Z,23.2
2023-10-20T23:29:43.866Z,23.2
2023-10-20T23:35:21.060Z,23.2
2023-10-20T23:41:13.402Z,23.1
2023-10-20T23:46:50.298Z,23.1
2023-10-20T23:52:27.536Z,23.1
2023-10-20T23:58:03.654Z,23.1
